Aeroporto :
LOGIN :

Iscrizione | Disclaimer

   EN    FR    IT 

 










Sommario :    VFR   VFR Marginale   IFR   IFR Intensivo   IFR Molto Intensivo
Visibilità : 
Base nubi : 
>= 8 km
>= 3000ft
5 / 8 km
1000 / 3000 ft
1500m / 5 km
500 / 1000 ft
800 / 1500m
200 / 500 ft
< 800m
< 200 ft
Simboli :   Temporali  Nebbia  Neve Forte  Precipitazioni Forti  Vento > 20 kt
SIGMETs :   Varie  Temporali  Ghiacco  Turbolenza  Onda orograficha  Ceneri Vulcaniche






- Altitudine del aeroporto : 55 ft
- Codice IATA : DSA


EGCN - Robin Hood Doncaster Sheffield

ULTIMO METAR :
  • 121020Z 23008KT 9999 FEW022 06/04 Q0992

METARs OBSOLETI :
  • 120950Z 24012KT 9999 SCT017 BKN039 06/04 Q0992
  • 120920Z 24017KT 9999 FEW013 BKN019 05/03 Q0991
  • 120850Z 23015KT 9999 SCT021 BKN026 05/03 Q0991
  • 120820Z 23015KT 9999 RA BKN019 05/03 Q0991
  • 120750Z 22013KT 9999 -RA SCT019 BKN025 06/03 Q0992

TAF TAF EGCN
Valido dal 12 a 06 ore il 13 a 06 ore UTC


120504Z 1206/1306 25014KT 9999 SCT030
TEMPO 1206/1209 27018G30KT 6000 RA
PROB30
TEMPO 1206/1209 4000 +RA BKN014
BECMG 1209/1212 31012KT
PROB30
TEMPO 1212/1218 31017G27KT



MetMap, La meteo Aeronautica in un colpo d'occhio ! - Copyright ORBIFLY Dicembre 2007 - Disclaimer

ORBIFLY MET'MAP TEAM :

Programmazione e sviluppo : Alexandra Zaïnal
Concezione e sviluppo : Baudouin d'Aumeries
Co-Programmazione e sviluppo : Marc-Olivier Méhu
Supporto tecnico e logistico : Manuel Goepfert
Aiuto per la traduzione : Arnaldo La Scala

Contatto : metmap@orbifly.com




FONTI E CREDITI :

   NOAA